Airfield :
LOGIN :

Register | Disclaimer

   EN    FR    IT 

 










Legend :    VFR   Marginal VFR   IFR   Intensive IFR   Very Intensive IFR
Visi :
Ceiling :
>= 8 km
>= 3000ft
5 to 8 km
1000 to 3000 ft
1500m to 5 km
500 to 1000 ft
800 to 1500m
200 to 500 ft
< 800m
< 200 ft
Symbols :   Thunderstorms  Fog  Heavy snow  Heavy precipitations  Wind > 20 kt
SIGMETs :     Misc.  Thunderstorms  Icing  Turbulence  Mountain Waves  Volcanic Ashes






- Airport Elevation : 209 ft
- IATA code : CLY


LFKC - Calvi

CURRENT METAR :
  • 260600Z AUTO 17004KT 9999 FEW082 06/05 Q1020 NOSIG

EXPIRED METARs :
  • 260530Z AUTO 18003KT 9999 FEW082 BKN150 BKN170 07/06 Q1020 NOSIG
  • 260500Z AUTO 19003KT CAVOK 07/06 Q1020 NOSIG
  • 260430Z AUTO 17004KT 9999 BKN084 BKN160 07/07 Q1020 NOSIG
  • 260400Z AUTO 19004KT 9999 BKN086 BKN150 08/07 Q1020 NOSIG
  • 260330Z AUTO 18005KT 9999 OVC084 07/07 Q1020 NOSIG

TAF TAF LFKC
Valid from the 26 at 03:00 until the 27 at 03:00 UTC


260200Z 2603/2703 18006KT 9999 FEW040 TX15/2612Z TN06/2605Z
BECMG 2608/2610 34010KT
TEMPO 2606/2615 FEW030 BKN090
BECMG 2618/2620 18006KT
ATIS : +33 4 95 65 82 49



MET'MAP, your aeronautical weather chart ! - Copyright ORBIFLY December 2007 - Disclaimer

ORBIFLY MET'MAP TEAM :

Programming & Development : Alexandra Zaïnal
Concept & original design : Baudouin d'Aumeries
Assistance for programming : Marc-Olivier Méhu
Technical & hardware support : Manuel Goepfert

Contact : metmap@orbifly.com




SOURCES & CREDITS :

   NOAA